This is the latest recevied weather packets stored in our database for station/object YO6SAY-10. If no packets are shown the sender has not sent any weather packets the latest 10 day(s).
| Time | Temp. | Humidity | Pressure | Rain* | Wind** | Luminosity | Snow |
|---|---|---|---|---|---|---|---|
| 1777715093 | 13.33° C | 46% | 955.7 hPa | - | - | - | - |
| 1777714193 | 11.11° C | 46% | 956 hPa | - | - | - | - |
| 1777713292 | 10.56° C | 45% | 956.2 hPa | - | - | - | - |
| 1777712392 | 10.56° C | 45% | 956.1 hPa | - | - | - | - |
| 1777711492 | 11.11° C | 44% | 956.1 hPa | - | - | - | - |
| 1777710592 | 11.11° C | 44% | 956.1 hPa | - | - | - | - |
| 1777709692 | 11.67° C | 44% | 956 hPa | - | - | - | - |
| 1777708792 | 12.22° C | 44% | 955.9 hPa | - | - | - | - |
| 1777707892 | 12.78° C | 44% | 955.7 hPa | - | - | - | - |
| 1777706991 | 12.78° C | 45% | 955.7 hPa | - | - | - | - |
| 1777706090 | 12.78° C | 46% | 955.6 hPa | - | - | - | - |
| 1777705190 | 12.78° C | 47% | 955.5 hPa | - | - | - | - |
| 1777704290 | 12.78° C | 50% | 955.4 hPa | - | - | - | - |
| 1777703389 | 13.33° C | 51% | 955.5 hPa | - | - | - | - |
| 1777702489 | 12.22° C | 50% | 955.5 hPa | - | - | - | - |
| 1777701589 | 11.11° C | 48% | 955.4 hPa | - | - | - | - |
| 1777700689 | 11.11° C | 47% | 955.4 hPa | - | - | - | - |
| 1777699789 | 10.56° C | 47% | 955.3 hPa | - | - | - | - |
| 1777698889 | 10.56° C | 47% | 955.3 hPa | - | - | - | - |
| 1777697989 | 10.56° C | 47% | 955.2 hPa | - | - | - | - |
| 1777697088 | 10.56° C | 47% | 955.2 hPa | - | - | - | - |
| 1777696188 | 10.56° C | 47% | 955.1 hPa | - | - | - | - |
| 1777695288 | 10.56° C | 47% | 955.2 hPa | - | - | - | - |
| 1777694388 | 10.56° C | 48% | 955.1 hPa | - | - | - | - |
| 1777693488 | 10° C | 47% | 955.1 hPa | - | - | - | - |
* Rain since midnight (hover to see other rain measurements)
** Current wind speed in m/s (hover to see current wind gust speed)